sensor_id;sensor_type;location;lat;lon;timestamp;pressure;altitude;pressure_sealevel;temperature;humidity
31717;BME280;18301;51.076;17.046;2023-01-28T00:07:40;100871.50;;;2.49;87.90
31717;BME280;18301;51.076;17.046;2023-01-28T00:12:42;100874.47;;;2.40;88.05
31717;BME280;18301;51.076;17.046;2023-01-28T00:17:43;100877.41;;;2.31;88.67
31717;BME280;18301;51.076;17.046;2023-01-28T00:22:47;100872.28;;;2.51;88.47
31717;BME280;18301;51.076;17.046;2023-01-28T00:27:52;100872.34;;;2.50;88.75
31717;BME280;18301;51.076;17.046;2023-01-28T00:32:53;100864.66;;;2.41;89.02
31717;BME280;18301;51.076;17.046;2023-01-28T00:37:56;100860.41;;;2.35;89.48
31717;BME280;18301;51.076;17.046;2023-01-28T00:42:57;100862.13;;;2.36;90.20
31717;BME280;18301;51.076;17.046;2023-01-28T00:47:59;100858.69;;;2.34;90.67
31717;BME280;18301;51.076;17.046;2023-01-28T00:53:00;100860.00;;;2.47;90.17
31717;BME280;18301;51.076;17.046;2023-01-28T00:58:02;100850.13;;;2.51;89.50
31717;BME280;18301;51.076;17.046;2023-01-28T01:03:03;100852.63;;;2.56;89.43
31717;BME280;18301;51.076;17.046;2023-01-28T01:08:05;100849.25;;;2.50;89.97
31717;BME280;18301;51.076;17.046;2023-01-28T01:13:07;100848.28;;;2.53;89.53
31717;BME280;18301;51.076;17.046;2023-01-28T01:18:08;100857.47;;;2.43;89.41
31717;BME280;18301;51.076;17.046;2023-01-28T01:23:10;100873.84;;;2.30;89.17
31717;BME280;18301;51.076;17.046;2023-01-28T01:28:14;100870.00;;;2.41;88.88
31717;BME280;18301;51.076;17.046;2023-01-28T01:33:15;100877.41;;;2.31;88.87
31717;BME280;18301;51.076;17.046;2023-01-28T01:38:17;100887.69;;;2.43;88.60
31717;BME280;18301;51.076;17.046;2023-01-28T01:43:48;100894.00;;;2.39;88.33
31717;BME280;18301;51.076;17.046;2023-01-28T01:48:50;100892.28;;;2.38;88.08
31717;BME280;18301;51.076;17.046;2023-01-28T01:53:54;100893.41;;;2.31;87.75
31717;BME280;18301;51.076;17.046;2023-01-28T01:58:59;100909.78;;;2.45;89.03
31717;BME280;18301;51.076;17.046;2023-01-28T02:04:09;100902.56;;;2.49;88.50
31717;BME280;18301;51.076;17.046;2023-01-28T02:09:29;100903.47;;;2.49;89.13
31717;BME280;18301;51.076;17.046;2023-01-28T02:14:34;100899.34;;;2.39;89.03
31717;BME280;18301;51.076;17.046;2023-01-28T02:19:50;100907.13;;;2.45;89.22
31717;BME280;18301;51.076;17.046;2023-01-28T02:30:32;100913.69;;;2.35;89.36
31717;BME280;18301;51.076;17.046;2023-01-28T02:35:45;100904.06;;;2.31;89.49
31717;BME280;18301;51.076;17.046;2023-01-28T02:40:56;100909.03;;;2.14;89.16
31717;BME280;18301;51.076;17.046;2023-01-28T02:46:20;100921.59;;;2.08;89.65
31717;BME280;18301;51.076;17.046;2023-01-28T02:57:18;100913.31;;;2.18;89.52
31717;BME280;18301;51.076;17.046;2023-01-28T03:02:30;100916.03;;;2.16;89.75
31717;BME280;18301;51.076;17.046;2023-01-28T03:07:36;100916.81;;;2.20;90.17
31717;BME280;18301;51.076;17.046;2023-01-28T03:12:40;100910.56;;;2.21;89.74
31717;BME280;18301;51.076;17.046;2023-01-28T03:18:06;100913.88;;;2.29;89.98
31717;BME280;18301;51.076;17.046;2023-01-28T03:23:32;100917.28;;;2.34;89.94
31717;BME280;18301;51.076;17.046;2023-01-28T03:29:03;100927.81;;;2.37;89.50
31717;BME280;18301;51.076;17.046;2023-01-28T03:34:25;100924.72;;;2.23;89.64
31717;BME280;18301;51.076;17.046;2023-01-28T03:39:46;100915.88;;;2.21;89.17
31717;BME280;18301;51.076;17.046;2023-01-28T03:44:49;100917.38;;;2.31;89.27
31717;BME280;18301;51.076;17.046;2023-01-28T03:49:55;100921.59;;;2.37;89.53
31717;BME280;18301;51.076;17.046;2023-01-28T03:54:57;100928.97;;;2.57;89.08
31717;BME280;18301;51.076;17.046;2023-01-28T03:59:58;100920.16;;;2.54;88.88
31717;BME280;18301;51.076;17.046;2023-01-28T04:05:00;100933.34;;;2.31;86.11
31717;BME280;18301;51.076;17.046;2023-01-28T04:10:07;100939.41;;;2.06;87.93
31717;BME280;18301;51.076;17.046;2023-01-28T04:15:09;100936.69;;;2.08;88.42
31717;BME280;18301;51.076;17.046;2023-01-28T04:20:16;100942.88;;;2.08;87.95
31717;BME280;18301;51.076;17.046;2023-01-28T04:25:18;100943.56;;;2.15;87.83
31717;BME280;18301;51.076;17.046;2023-01-28T04:30:19;100947.03;;;2.19;88.36
31717;BME280;18301;51.076;17.046;2023-01-28T04:35:21;100944.19;;;2.25;88.18
31717;BME280;18301;51.076;17.046;2023-01-28T04:40:22;100950.28;;;2.28;88.62
31717;BME280;18301;51.076;17.046;2023-01-28T04:45:24;100965.34;;;2.29;88.24
31717;BME280;18301;51.076;17.046;2023-01-28T04:50:25;100963.34;;;2.36;87.91
31717;BME280;18301;51.076;17.046;2023-01-28T04:55:27;100958.03;;;2.36;88.07
31717;BME280;18301;51.076;17.046;2023-01-28T05:00:28;100965.16;;;2.36;87.78
31717;BME280;18301;51.076;17.046;2023-01-28T05:05:30;100968.97;;;2.27;87.89
31717;BME280;18301;51.076;17.046;2023-01-28T05:10:31;100970.91;;;2.22;87.91
31717;BME280;18301;51.076;17.046;2023-01-28T05:15:33;100976.00;;;2.29;87.50
31717;BME280;18301;51.076;17.046;2023-01-28T05:20:34;100982.25;;;2.28;86.92
31717;BME280;18301;51.076;17.046;2023-01-28T05:25:36;100975.88;;;2.34;86.69
31717;BME280;18301;51.076;17.046;2023-01-28T05:30:37;100985.13;;;2.21;87.00
31717;BME280;18301;51.076;17.046;2023-01-28T05:35:41;100985.81;;;2.27;87.27
31717;BME280;18301;51.076;17.046;2023-01-28T05:40:43;100993.84;;;2.26;87.30
31717;BME280;18301;51.076;17.046;2023-01-28T05:45:45;100992.25;;;2.20;86.32
31717;BME280;18301;51.076;17.046;2023-01-28T05:50:48;100993.47;;;2.08;86.71
31717;BME280;18301;51.076;17.046;2023-01-28T05:55:51;100995.69;;;1.94;86.41
31717;BME280;18301;51.076;17.046;2023-01-28T06:00:54;100994.00;;;1.90;87.44
31717;BME280;18301;51.076;17.046;2023-01-28T06:05:56;100996.56;;;1.95;86.44
31717;BME280;18301;51.076;17.046;2023-01-28T06:10:58;101008.25;;;1.89;86.61
31717;BME280;18301;51.076;17.046;2023-01-28T06:15:59;100999.03;;;2.01;87.00
31717;BME280;18301;51.076;17.046;2023-01-28T06:21:01;101013.69;;;2.16;86.62
31717;BME280;18301;51.076;17.046;2023-01-28T06:26:02;101020.66;;;2.20;86.35
31717;BME280;18301;51.076;17.046;2023-01-28T06:31:04;101018.66;;;2.28;85.52
31717;BME280;18301;51.076;17.046;2023-01-28T06:36:06;101016.00;;;2.28;85.32
31717;BME280;18301;51.076;17.046;2023-01-28T06:41:07;101031.31;;;2.20;85.29
31717;BME280;18301;51.076;17.046;2023-01-28T06:46:09;101032.38;;;2.14;85.30
31717;BME280;18301;51.076;17.046;2023-01-28T06:51:11;101043.44;;;2.00;85.34
31717;BME280;18301;51.076;17.046;2023-01-28T06:56:12;101045.00;;;2.06;85.54
31717;BME280;18301;51.076;17.046;2023-01-28T07:01:14;101053.06;;;2.04;84.53
31717;BME280;18301;51.076;17.046;2023-01-28T07:06:16;101054.97;;;1.99;85.34
31717;BME280;18301;51.076;17.046;2023-01-28T07:11:17;101056.56;;;2.06;84.77
31717;BME280;18301;51.076;17.046;2023-01-28T07:16:19;101066.09;;;2.14;84.25
31717;BME280;18301;51.076;17.046;2023-01-28T07:21:20;101073.34;;;2.08;83.61
31717;BME280;18301;51.076;17.046;2023-01-28T07:26:22;101084.13;;;2.04;83.76
31717;BME280;18301;51.076;17.046;2023-01-28T07:31:23;101081.81;;;1.92;84.08
31717;BME280;18301;51.076;17.046;2023-01-28T07:36:25;101081.59;;;1.99;84.44
31717;BME280;18301;51.076;17.046;2023-01-28T07:41:27;101088.94;;;1.90;84.13
31717;BME280;18301;51.076;17.046;2023-01-28T07:46:29;101078.84;;;1.70;84.62
31717;BME280;18301;51.076;17.046;2023-01-28T07:51:30;101085.00;;;1.72;84.24
31717;BME280;18301;51.076;17.046;2023-01-28T07:56:32;101080.75;;;1.65;85.06
31717;BME280;18301;51.076;17.046;2023-01-28T08:01:33;101083.84;;;1.82;85.39
31717;BME280;18301;51.076;17.046;2023-01-28T08:06:35;101093.81;;;1.74;84.40
31717;BME280;18301;51.076;17.046;2023-01-28T08:11:38;101083.03;;;1.78;85.15
31717;BME280;18301;51.076;17.046;2023-01-28T08:16:39;101091.88;;;1.80;85.27
31717;BME280;18301;51.076;17.046;2023-01-28T08:21:41;101102.72;;;2.05;84.06
31717;BME280;18301;51.076;17.046;2023-01-28T08:26:42;101102.81;;;2.02;84.41
31717;BME280;18301;51.076;17.046;2023-01-28T08:31:44;101099.91;;;1.79;84.84
31717;BME280;18301;51.076;17.046;2023-01-28T08:36:45;101098.97;;;1.80;84.86
31717;BME280;18301;51.076;17.046;2023-01-28T08:41:47;101105.06;;;1.85;84.31
31717;BME280;18301;51.076;17.046;2023-01-28T08:46:48;101106.97;;;1.78;84.78
31717;BME280;18301;51.076;17.046;2023-01-28T08:51:50;101104.31;;;1.78;84.74
31717;BME280;18301;51.076;17.046;2023-01-28T08:56:51;101099.97;;;1.76;85.33
31717;BME280;18301;51.076;17.046;2023-01-28T09:01:53;101104.13;;;1.86;84.79
31717;BME280;18301;51.076;17.046;2023-01-28T09:06:54;101108.78;;;1.78;85.43
31717;BME280;18301;51.076;17.046;2023-01-28T09:11:56;101107.56;;;1.91;85.32
31717;BME280;18301;51.076;17.046;2023-01-28T09:16:57;101112.13;;;1.86;85.25
31717;BME280;18301;51.076;17.046;2023-01-28T09:21:59;101124.09;;;2.02;84.89
31717;BME280;18301;51.076;17.046;2023-01-28T09:27:00;101110.31;;;1.88;84.80
31717;BME280;18301;51.076;17.046;2023-01-28T09:32:02;101124.44;;;1.90;84.64
31717;BME280;18301;51.076;17.046;2023-01-28T09:37:03;101136.69;;;1.97;83.53
31717;BME280;18301;51.076;17.046;2023-01-28T09:47:44;101140.59;;;1.82;84.75
31717;BME280;18301;51.076;17.046;2023-01-28T09:52:47;101140.56;;;1.84;84.28
31717;BME280;18301;51.076;17.046;2023-01-28T09:57:51;101138.41;;;1.98;83.93
31717;BME280;18301;51.076;17.046;2023-01-28T10:03:21;101140.63;;;1.81;84.26
31717;BME280;18301;51.076;17.046;2023-01-28T10:19:10;101142.25;;;1.88;83.94
31717;BME280;18301;51.076;17.046;2023-01-28T10:29:29;101131.69;;;1.85;83.43
31717;BME280;18301;51.076;17.046;2023-01-28T10:34:33;101128.78;;;1.93;83.46
31717;BME280;18301;51.076;17.046;2023-01-28T10:39:35;101138.25;;;2.04;83.62
31717;BME280;18301;51.076;17.046;2023-01-28T10:44:39;101138.25;;;2.04;83.64
31717;BME280;18301;51.076;17.046;2023-01-28T10:49:46;101140.75;;;2.11;83.05
31717;BME280;18301;51.076;17.046;2023-01-28T10:55:04;101137.91;;;2.17;82.31
31717;BME280;18301;51.076;17.046;2023-01-28T11:00:22;101133.78;;;2.06;82.76
31717;BME280;18301;51.076;17.046;2023-01-28T11:05:27;101132.22;;;1.98;82.77
31717;BME280;18301;51.076;17.046;2023-01-28T11:10:32;101126.91;;;1.96;83.15
31717;BME280;18301;51.076;17.046;2023-01-28T11:15:34;101144.72;;;2.27;82.49
31717;BME280;18301;51.076;17.046;2023-01-28T11:20:42;101141.09;;;2.31;81.23
31717;BME280;18301;51.076;17.046;2023-01-28T11:26:01;101133.59;;;2.13;81.12
31717;BME280;18301;51.076;17.046;2023-01-28T11:31:04;101122.63;;;2.23;81.52
31717;BME280;18301;51.076;17.046;2023-01-28T11:36:18;101121.81;;;1.89;80.68
31717;BME280;18301;51.076;17.046;2023-01-28T11:41:35;101122.88;;;2.16;80.37
31717;BME280;18301;51.076;17.046;2023-01-28T11:46:55;101130.38;;;2.64;78.10
31717;BME280;18301;51.076;17.046;2023-01-28T12:02:48;101123.22;;;2.02;79.54
31717;BME280;18301;51.076;17.046;2023-01-28T12:07:57;101127.53;;;2.07;78.20
31717;BME280;18301;51.076;17.046;2023-01-28T12:18:33;101120.28;;;2.13;76.15
31717;BME280;18301;51.076;17.046;2023-01-28T12:29:07;101125.38;;;1.88;74.27
31717;BME280;18301;51.076;17.046;2023-01-28T12:34:30;101117.75;;;1.74;74.29
31717;BME280;18301;51.076;17.046;2023-01-28T12:39:41;101121.44;;;1.70;75.45
31717;BME280;18301;51.076;17.046;2023-01-28T12:44:49;101127.06;;;1.57;76.28
31717;BME280;18301;51.076;17.046;2023-01-28T12:50:19;101126.75;;;1.70;75.20
31717;BME280;18301;51.076;17.046;2023-01-28T12:55:43;101139.06;;;1.74;74.97
31717;BME280;18301;51.076;17.046;2023-01-28T13:00:49;101136.72;;;1.60;74.74
31717;BME280;18301;51.076;17.046;2023-01-28T13:05:56;101144.75;;;1.58;74.82
31717;BME280;18301;51.076;17.046;2023-01-28T13:11:01;101157.13;;;1.59;74.34
31717;BME280;18301;51.076;17.046;2023-01-28T13:16:07;101130.59;;;1.56;73.69
31717;BME280;18301;51.076;17.046;2023-01-28T13:21:15;101141.09;;;1.63;74.30
31717;BME280;18301;51.076;17.046;2023-01-28T13:31:22;101141.97;;;1.63;74.81
31717;BME280;18301;51.076;17.046;2023-01-28T13:46:39;101156.69;;;1.78;72.30
31717;BME280;18301;51.076;17.046;2023-01-28T13:51:51;101151.81;;;1.59;72.95
31717;BME280;18301;51.076;17.046;2023-01-28T14:08:32;101178.28;;;1.28;72.30
31717;BME280;18301;51.076;17.046;2023-01-28T14:18:23;101175.31;;;1.42;72.78
31717;BME280;18301;51.076;17.046;2023-01-28T14:23:26;101188.56;;;1.44;71.00
31717;BME280;18301;51.076;17.046;2023-01-28T14:28:47;101194.22;;;1.66;70.00
31717;BME280;18301;51.076;17.046;2023-01-28T14:33:53;101192.72;;;1.55;69.32
31717;BME280;18301;51.076;17.046;2023-01-28T14:38:56;101195.63;;;1.45;69.20
31717;BME280;18301;51.076;17.046;2023-01-28T14:43:58;101198.25;;;1.46;70.71
31717;BME280;18301;51.076;17.046;2023-01-28T14:49:25;101200.34;;;1.32;69.96
31717;BME280;18301;51.076;17.046;2023-01-28T14:54:37;101193.88;;;1.44;70.04
31717;BME280;18301;51.076;17.046;2023-01-28T15:00:00;101207.28;;;1.39;69.85
31717;BME280;18301;51.076;17.046;2023-01-28T15:05:14;101206.50;;;1.34;69.30
31717;BME280;18301;51.076;17.046;2023-01-28T15:10:40;101203.47;;;1.12;67.34
31717;BME280;18301;51.076;17.046;2023-01-28T15:15:45;101221.28;;;1.47;66.70
31717;BME280;18301;51.076;17.046;2023-01-28T15:20:50;101218.97;;;1.32;67.19
31717;BME280;18301;51.076;17.046;2023-01-28T15:25:53;101227.47;;;1.07;67.60
31717;BME280;18301;51.076;17.046;2023-01-28T15:30:56;101229.13;;;1.14;68.62
31717;BME280;18301;51.076;17.046;2023-01-28T15:35:59;101227.59;;;1.03;67.40
31717;BME280;18301;51.076;17.046;2023-01-28T15:41:02;101225.19;;;0.89;66.35
31717;BME280;18301;51.076;17.046;2023-01-28T15:46:10;101227.72;;;0.95;66.58
31717;BME280;18301;51.076;17.046;2023-01-28T15:51:22;101238.50;;;0.89;67.64
31717;BME280;18301;51.076;17.046;2023-01-28T15:56:27;101247.19;;;0.97;67.30
31717;BME280;18301;51.076;17.046;2023-01-28T16:01:29;101248.13;;;0.96;67.35
31717;BME280;18301;51.076;17.046;2023-01-28T16:06:34;101245.63;;;0.87;67.48
31717;BME280;18301;51.076;17.046;2023-01-28T16:11:37;101258.06;;;0.85;66.22
31717;BME280;18301;51.076;17.046;2023-01-28T16:16:46;101240.69;;;0.68;66.50
31717;BME280;18301;51.076;17.046;2023-01-28T16:21:48;101239.16;;;0.55;65.84
31717;BME280;18301;51.076;17.046;2023-01-28T16:27:17;101247.81;;;0.66;67.18
31717;BME280;18301;51.076;17.046;2023-01-28T16:32:35;101252.75;;;0.85;66.26
31717;BME280;18301;51.076;17.046;2023-01-28T16:37:38;101253.97;;;0.68;65.06
31717;BME280;18301;51.076;17.046;2023-01-28T16:42:42;101255.19;;;0.51;65.87
31717;BME280;18301;51.076;17.046;2023-01-28T16:47:49;101256.88;;;0.56;66.42
31717;BME280;18301;51.076;17.046;2023-01-28T16:52:52;101258.00;;;0.89;64.47
31717;BME280;18301;51.076;17.046;2023-01-28T16:57:55;101259.88;;;0.83;65.19
31717;BME280;18301;51.076;17.046;2023-01-28T17:02:57;101259.16;;;0.75;65.67
31717;BME280;18301;51.076;17.046;2023-01-28T17:07:59;101255.69;;;0.71;65.43
31717;BME280;18301;51.076;17.046;2023-01-28T17:13:00;101255.28;;;0.91;65.62
31717;BME280;18301;51.076;17.046;2023-01-28T17:18:02;101254.75;;;0.74;63.87
31717;BME280;18301;51.076;17.046;2023-01-28T17:23:05;101263.19;;;0.94;63.76
31717;BME280;18301;51.076;17.046;2023-01-28T17:28:09;101266.47;;;0.63;63.82
31717;BME280;18301;51.076;17.046;2023-01-28T17:33:10;101258.44;;;0.66;64.08
31717;BME280;18301;51.076;17.046;2023-01-28T17:38:14;101267.88;;;0.35;62.82
31717;BME280;18301;51.076;17.046;2023-01-28T17:43:16;101272.69;;;0.62;63.59
31717;BME280;18301;51.076;17.046;2023-01-28T17:48:17;101278.38;;;0.41;64.40
31717;BME280;18301;51.076;17.046;2023-01-28T17:53:19;101285.09;;;0.60;64.29
31717;BME280;18301;51.076;17.046;2023-01-28T17:58:20;101285.34;;;0.48;64.21
31717;BME280;18301;51.076;17.046;2023-01-28T18:03:22;101296.47;;;0.68;64.36
31717;BME280;18301;51.076;17.046;2023-01-28T18:08:23;101298.22;;;0.69;64.72
31717;BME280;18301;51.076;17.046;2023-01-28T18:13:25;101305.31;;;0.69;64.09
31717;BME280;18301;51.076;17.046;2023-01-28T18:18:26;101307.75;;;0.80;64.00
31717;BME280;18301;51.076;17.046;2023-01-28T18:23:28;101307.59;;;0.89;63.95
31717;BME280;18301;51.076;17.046;2023-01-28T18:28:30;101316.88;;;0.68;63.19
31717;BME280;18301;51.076;17.046;2023-01-28T18:33:31;101316.91;;;0.65;63.83
31717;BME280;18301;51.076;17.046;2023-01-28T18:38:33;101327.94;;;0.42;63.63
31717;BME280;18301;51.076;17.046;2023-01-28T18:43:35;101323.97;;;0.64;64.67
31717;BME280;18301;51.076;17.046;2023-01-28T18:48:37;101328.78;;;0.44;63.93
31717;BME280;18301;51.076;17.046;2023-01-28T18:53:38;101331.09;;;0.64;64.05
31717;BME280;18301;51.076;17.046;2023-01-28T18:58:40;101330.84;;;0.76;64.95
31717;BME280;18301;51.076;17.046;2023-01-28T19:03:41;101341.63;;;0.68;64.80
31717;BME280;18301;51.076;17.046;2023-01-28T19:08:43;101332.66;;;0.76;63.67
31717;BME280;18301;51.076;17.046;2023-01-28T19:13:44;101340.88;;;0.60;62.55
31717;BME280;18301;51.076;17.046;2023-01-28T19:18:57;101341.75;;;0.62;63.19
31717;BME280;18301;51.076;17.046;2023-01-28T19:24:10;101340.03;;;0.60;63.39
31717;BME280;18301;51.076;17.046;2023-01-28T19:29:13;101335.34;;;0.73;62.88
31717;BME280;18301;51.076;17.046;2023-01-28T19:34:16;101338.56;;;0.42;61.94
31717;BME280;18301;51.076;17.046;2023-01-28T19:39:18;101345.44;;;0.54;62.08
31717;BME280;18301;51.076;17.046;2023-01-28T19:44:19;101343.31;;;0.73;61.70
31717;BME280;18301;51.076;17.046;2023-01-28T19:49:21;101343.44;;;0.66;62.66
31717;BME280;18301;51.076;17.046;2023-01-28T19:54:22;101341.53;;;0.75;61.82
31717;BME280;18301;51.076;17.046;2023-01-28T19:59:24;101338.72;;;0.84;61.79
31717;BME280;18301;51.076;17.046;2023-01-28T20:04:25;101349.59;;;0.68;61.79
31717;BME280;18301;51.076;17.046;2023-01-28T20:09:26;101348.84;;;0.62;61.80
31717;BME280;18301;51.076;17.046;2023-01-28T20:14:28;101350.50;;;0.67;62.33
31717;BME280;18301;51.076;17.046;2023-01-28T20:19:30;101346.78;;;0.78;62.20
31717;BME280;18301;51.076;17.046;2023-01-28T20:24:33;101366.75;;;0.49;60.91
31717;BME280;18301;51.076;17.046;2023-01-28T20:29:35;101364.47;;;0.79;61.01
31717;BME280;18301;51.076;17.046;2023-01-28T20:34:36;101353.78;;;0.83;62.03
31717;BME280;18301;51.076;17.046;2023-01-28T20:39:38;101360.94;;;0.77;62.58
31717;BME280;18301;51.076;17.046;2023-01-28T20:44:39;101350.84;;;0.99;63.10
31717;BME280;18301;51.076;17.046;2023-01-28T20:49:41;101348.94;;;1.05;63.20
31717;BME280;18301;51.076;17.046;2023-01-28T20:54:42;101338.94;;;1.17;63.61
31717;BME280;18301;51.076;17.046;2023-01-28T20:59:44;101340.72;;;1.18;63.19
31717;BME280;18301;51.076;17.046;2023-01-28T21:04:45;101338.00;;;1.21;63.46
31717;BME280;18301;51.076;17.046;2023-01-28T21:09:46;101343.78;;;0.96;63.29
31717;BME280;18301;51.076;17.046;2023-01-28T21:14:49;101351.19;;;0.80;63.74
31717;BME280;18301;51.076;17.046;2023-01-28T21:19:50;101346.38;;;0.99;64.06
31717;BME280;18301;51.076;17.046;2023-01-28T21:24:52;101359.47;;;1.10;63.89
31717;BME280;18301;51.076;17.046;2023-01-28T21:29:53;101362.78;;;1.21;63.83
31717;BME280;18301;51.076;17.046;2023-01-28T21:34:55;101359.16;;;1.25;64.01
31717;BME280;18301;51.076;17.046;2023-01-28T21:39:56;101360.03;;;1.26;64.08
31717;BME280;18301;51.076;17.046;2023-01-28T21:44:58;101367.19;;;1.24;64.08
31717;BME280;18301;51.076;17.046;2023-01-28T21:49:59;101365.22;;;1.32;63.93
31717;BME280;18301;51.076;17.046;2023-01-28T21:55:01;101374.41;;;1.15;63.99
31717;BME280;18301;51.076;17.046;2023-01-28T22:00:03;101363.81;;;1.14;64.67
31717;BME280;18301;51.076;17.046;2023-01-28T22:05:05;101359.25;;;1.21;64.72
31717;BME280;18301;51.076;17.046;2023-01-28T22:10:07;101340.16;;;1.00;65.45
31717;BME280;18301;51.076;17.046;2023-01-28T22:15:09;101344.50;;;1.04;65.79
31717;BME280;18301;51.076;17.046;2023-01-28T22:20:10;101331.38;;;0.97;66.17
31717;BME280;18301;51.076;17.046;2023-01-28T22:25:12;101346.22;;;1.08;65.85
31717;BME280;18301;51.076;17.046;2023-01-28T22:30:14;101332.84;;;1.11;66.61
31717;BME280;18301;51.076;17.046;2023-01-28T22:35:15;101323.03;;;1.13;67.12
31717;BME280;18301;51.076;17.046;2023-01-28T22:40:17;101316.84;;;1.14;67.57
31717;BME280;18301;51.076;17.046;2023-01-28T22:45:18;101322.28;;;1.07;67.55
31717;BME280;18301;51.076;17.046;2023-01-28T22:50:20;101319.88;;;0.96;68.37
31717;BME280;18301;51.076;17.046;2023-01-28T22:55:21;101314.66;;;0.90;69.16
31717;BME280;18301;51.076;17.046;2023-01-28T23:00:26;101328.31;;;0.72;70.04
31717;BME280;18301;51.076;17.046;2023-01-28T23:05:28;101322.84;;;0.79;69.90
31717;BME280;18301;51.076;17.046;2023-01-28T23:10:30;101327.19;;;0.83;70.05
31717;BME280;18301;51.076;17.046;2023-01-28T23:15:34;101330.84;;;0.78;70.52
31717;BME280;18301;51.076;17.046;2023-01-28T23:20:54;101331.34;;;0.50;71.72
31717;BME280;18301;51.076;17.046;2023-01-28T23:26:16;101327.50;;;0.66;70.92
31717;BME280;18301;51.076;17.046;2023-01-28T23:31:19;101330.31;;;0.57;70.70
31717;BME280;18301;51.076;17.046;2023-01-28T23:36:20;101331.66;;;0.81;70.08
31717;BME280;18301;51.076;17.046;2023-01-28T23:41:22;101322.06;;;0.73;70.05
31717;BME280;18301;51.076;17.046;2023-01-28T23:46:23;101327.72;;;0.54;70.65
31717;BME280;18301;51.076;17.046;2023-01-28T23:51:39;101316.66;;;0.79;70.48
31717;BME280;18301;51.076;17.046;2023-01-28T23:56:41;101326.84;;;0.54;70.73
